Time;durP1;ratioP1;P1;durP2;ratioP2;P2;SDS_P1;SDS_P2;PMS_P1;PMS_P2;Temp;Humidity;BMP_temperature;BMP_pressure;BME280_temperature;BME280_humidity;BME280_pressure;Samples;Min_cycle;Max_cycle;Signal;HPM_P1;HPM_P2
2021/12/16 00:03:37;;;;;;;11.30;4.80;;;;;;;;;;5028704;28;20979;-68
2021/12/16 00:09:06;;;;;;;12.07;5.57;;;;;;;;;;5018176;28;21658;-69
2021/12/16 00:33:36;;;;;;;9.73;5.17;;;;;;;;;;5026526;28;20426;-70
2021/12/16 00:36:03;;;;;;;10.10;5.23;;;;;;;;;;5024599;28;21586;-70
2021/12/16 00:38:28;;;;;;;9.57;5.70;;;;;;;;;;5026780;28;20472;-70
2021/12/16 00:40:55;;;;;;;14.17;5.30;;;;;;;;;;5036405;28;20463;-70
2021/12/16 00:43:34;;;;;;;16.53;6.93;;;;;;;;;;5025469;28;20200;-70
2021/12/16 00:48:59;;;;;;;8.40;5.30;;;;;;;;;;5029313;28;20774;-69
2021/12/16 00:54:12;;;;;;;14.90;6.93;;;;;;;;;;5026774;28;20535;-69
2021/12/16 00:56:39;;;;;;;14.33;6.70;;;;;;;;;;5026186;28;20437;-70
2021/12/16 00:59:07;;;;;;;18.70;6.60;;;;;;;;;;5023272;28;20470;-70
2021/12/16 01:01:41;;;;;;;13.17;6.50;;;;;;;;;;5024589;28;20422;-69
2021/12/16 01:33:25;;;;;;;18.37;7.37;;;;;;;;;;5025243;28;20461;-69
2021/12/16 01:34:34;;;;;;;17.00;6.40;;;;;;;;;;5025306;28;21662;-69
2021/12/16 01:37:39;;;;;;;15.33;7.00;;;;;;;;;;5024827;28;20433;-70
2021/12/16 01:45:40;;;;;;;16.23;7.30;;;;;;;;;;5027189;28;20562;-69
2021/12/16 01:51:18;;;;;;;11.20;6.50;;;;;;;;;;4975108;28;20439;-68
2021/12/16 01:56:35;;;;;;;10.43;6.03;;;;;;;;;;5021781;28;20438;-69
2021/12/16 01:59:05;;;;;;;15.20;7.33;;;;;;;;;;5021821;28;20646;-68
2021/12/16 02:01:33;;;;;;;9.90;5.97;;;;;;;;;;5025478;28;20533;-69
2021/12/16 02:04:02;;;;;;;13.80;7.53;;;;;;;;;;5025699;28;20485;-69
2021/12/16 02:09:02;;;;;;;18.00;7.20;;;;;;;;;;5026275;28;20429;-68
2021/12/16 02:11:56;;;;;;;15.80;7.40;;;;;;;;;;5029480;28;20422;-69
2021/12/16 02:36:28;;;;;;;14.80;7.03;;;;;;;;;;5025796;28;20774;-69
2021/12/16 02:39:08;;;;;;;14.63;7.37;;;;;;;;;;5023060;28;20466;-69
2021/12/16 02:41:34;;;;;;;14.27;7.70;;;;;;;;;;5027207;28;20423;-68
2021/12/16 02:49:22;;;;;;;11.60;7.67;;;;;;;;;;5025696;28;20469;-68
2021/12/16 02:51:47;;;;;;;15.30;7.80;;;;;;;;;;5019703;28;20446;-68
2021/12/16 02:54:14;;;;;;;15.20;7.27;;;;;;;;;;5024085;28;20536;-69
2021/12/16 02:56:39;;;;;;;15.20;7.80;;;;;;;;;;5024017;28;20442;-68
2021/12/16 02:59:05;;;;;;;26.27;9.37;;;;;;;;;;5024184;28;20525;-68
2021/12/16 03:01:44;;;;;;;13.50;7.50;;;;;;;;;;5026317;28;20802;-69
2021/12/16 03:04:13;;;;;;;17.60;7.70;;;;;;;;;;5021758;28;20560;-69
2021/12/16 03:06:39;;;;;;;16.40;8.20;;;;;;;;;;5019347;28;20434;-68
2021/12/16 03:09:06;;;;;;;12.20;7.67;;;;;;;;;;5023550;28;20529;-68
2021/12/16 03:11:44;;;;;;;13.70;7.63;;;;;;;;;;5027484;28;20473;-68
2021/12/16 03:17:27;;;;;;;18.20;9.10;;;;;;;;;;5021488;28;21539;-68
2021/12/16 03:22:49;;;;;;;15.20;7.43;;;;;;;;;;5023436;28;20442;-68
2021/12/16 03:25:26;;;;;;;13.33;8.13;;;;;;;;;;5026330;28;20486;-68
2021/12/16 03:33:15;;;;;;;17.13;8.00;;;;;;;;;;5024135;28;20902;-68
2021/12/16 03:35:51;;;;;;;14.70;9.00;;;;;;;;;;5025923;28;20423;-68
2021/12/16 03:38:17;;;;;;;14.50;8.20;;;;;;;;;;5024503;28;20466;-68
2021/12/16 03:40:43;;;;;;;21.97;8.33;;;;;;;;;;5023185;28;20439;-68
2021/12/16 03:43:13;;;;;;;19.97;9.97;;;;;;;;;;5025664;28;20429;-68
2021/12/16 03:48:28;;;;;;;15.57;8.03;;;;;;;;;;5026581;28;20432;-69
2021/12/16 03:50:54;;;;;;;15.87;8.67;;;;;;;;;;5027718;28;20744;-68
2021/12/16 03:53:19;;;;;;;15.97;7.53;;;;;;;;;;5022112;28;20437;-68
2021/12/16 03:55:45;;;;;;;16.67;8.43;;;;;;;;;;5024243;28;20227;-68
2021/12/16 03:58:11;;;;;;;16.20;8.23;;;;;;;;;;5021356;28;20618;-68
2021/12/16 04:00:41;;;;;;;15.80;8.80;;;;;;;;;;5029247;28;20483;-68
2021/12/16 04:03:07;;;;;;;17.07;7.90;;;;;;;;;;5027268;28;20172;-68
2021/12/16 04:05:32;;;;;;;16.20;8.00;;;;;;;;;;5024827;28;20443;-68
2021/12/16 04:07:57;;;;;;;16.33;9.20;;;;;;;;;;5023875;28;20271;-68
2021/12/16 04:10:33;;;;;;;18.13;8.40;;;;;;;;;;5027586;28;20215;-68
2021/12/16 04:13:00;;;;;;;19.90;7.57;;;;;;;;;;5023755;28;20192;-68
2021/12/16 04:15:25;;;;;;;15.50;7.00;;;;;;;;;;5023823;28;20441;-69
2021/12/16 04:17:51;;;;;;;15.47;8.17;;;;;;;;;;5026859;28;20472;-68
2021/12/16 04:20:17;;;;;;;21.07;8.50;;;;;;;;;;5036431;28;20267;-69
2021/12/16 04:22:44;;;;;;;14.47;8.93;;;;;;;;;;5023371;28;20204;-68
2021/12/16 04:25:14;;;;;;;15.23;8.47;;;;;;;;;;5026429;28;20214;-68
2021/12/16 04:27:41;;;;;;;17.43;8.20;;;;;;;;;;5025810;28;20514;-68
2021/12/16 04:30:08;;;;;;;13.60;7.40;;;;;;;;;;5022500;28;20565;-68
2021/12/16 04:32:33;;;;;;;16.90;7.60;;;;;;;;;;5023225;28;20431;-68
2021/12/16 04:34:59;;;;;;;16.10;8.07;;;;;;;;;;5025846;28;20451;-69
2021/12/16 04:37:24;;;;;;;16.40;7.43;;;;;;;;;;5030713;28;20728;-68
2021/12/16 04:39:49;;;;;;;20.70;8.17;;;;;;;;;;5027631;28;20179;-69
2021/12/16 04:42:16;;;;;;;16.77;7.30;;;;;;;;;;5026599;28;20177;-68
2021/12/16 04:44:41;;;;;;;17.60;7.87;;;;;;;;;;5023717;28;20204;-68
2021/12/16 04:47:07;;;;;;;16.30;7.30;;;;;;;;;;5031096;28;20807;-69
2021/12/16 04:49:33;;;;;;;16.30;8.30;;;;;;;;;;5028883;28;20180;-68
2021/12/16 04:52:00;;;;;;;11.57;7.00;;;;;;;;;;5030087;28;20496;-69
2021/12/16 04:54:29;;;;;;;16.17;7.03;;;;;;;;;;5027676;28;20529;-68
2021/12/16 04:56:55;;;;;;;14.20;6.57;;;;;;;;;;5025439;28;21229;-68
2021/12/16 04:59:21;;;;;;;18.00;7.30;;;;;;;;;;5025453;28;20520;-68
2021/12/16 05:01:49;;;;;;;16.53;6.73;;;;;;;;;;5037860;28;20471;-68
2021/12/16 05:04:14;;;;;;;16.77;6.33;;;;;;;;;;5027044;28;20467;-68
2021/12/16 05:06:39;;;;;;;13.93;7.10;;;;;;;;;;5028432;28;20434;-68
2021/12/16 05:09:06;;;;;;;15.17;6.57;;;;;;;;;;5028284;28;20180;-68
2021/12/16 05:11:34;;;;;;;14.30;6.47;;;;;;;;;;5028173;28;20271;-68
2021/12/16 05:14:00;;;;;;;12.70;7.00;;;;;;;;;;5031228;28;20455;-68
2021/12/16 05:16:25;;;;;;;14.90;6.37;;;;;;;;;;5026946;28;20439;-68
2021/12/16 05:18:53;;;;;;;16.27;6.80;;;;;;;;;;5027606;28;20206;-68
2021/12/16 05:21:45;;;;;;;10.83;6.70;;;;;;;;;;5023402;28;20192;-69
2021/12/16 05:24:25;;;;;;;17.53;5.93;;;;;;;;;;5031672;28;20467;-68
2021/12/16 05:26:52;;;;;;;12.80;6.10;;;;;;;;;;5024111;28;21016;-68
2021/12/16 05:29:17;;;;;;;11.10;6.00;;;;;;;;;;5028017;28;20923;-68
2021/12/16 05:31:43;;;;;;;16.40;5.90;;;;;;;;;;5021946;28;20438;-68
2021/12/16 05:34:08;;;;;;;12.57;5.60;;;;;;;;;;5027749;28;20211;-69
2021/12/16 05:36:34;;;;;;;16.70;5.60;;;;;;;;;;5026736;28;20951;-68
2021/12/16 05:38:59;;;;;;;10.77;4.83;;;;;;;;;;5026497;28;20746;-68
2021/12/16 05:41:25;;;;;;;14.43;5.80;;;;;;;;;;5022799;28;20180;-69
2021/12/16 05:43:51;;;;;;;14.20;6.37;;;;;;;;;;5023292;28;20261;-69
2021/12/16 05:46:18;;;;;;;15.83;6.20;;;;;;;;;;5023799;28;20200;-69
2021/12/16 05:48:44;;;;;;;12.27;5.77;;;;;;;;;;5040493;28;20192;-69
2021/12/16 05:51:12;;;;;;;10.37;4.70;;;;;;;;;;5020975;28;20442;-69
2021/12/16 05:53:38;;;;;;;12.20;5.90;;;;;;;;;;5022406;28;20458;-68
2021/12/16 05:56:04;;;;;;;11.90;5.07;;;;;;;;;;5024732;28;20438;-68
2021/12/16 05:58:30;;;;;;;14.70;6.00;;;;;;;;;;5022646;28;20467;-68
2021/12/16 06:01:01;;;;;;;12.40;6.47;;;;;;;;;;5024502;28;20469;-68
2021/12/16 06:03:27;;;;;;;16.40;6.03;;;;;;;;;;5023149;28;20208;-68
2021/12/16 06:05:52;;;;;;;10.57;5.83;;;;;;;;;;5023577;28;20987;-68
2021/12/16 06:08:18;;;;;;;10.40;6.10;;;;;;;;;;5022847;28;20195;-68
2021/12/16 06:13:33;;;;;;;14.43;5.80;;;;;;;;;;5025529;28;20746;-68
2021/12/16 06:27:10;;;;;;;18.87;6.47;;;;;;;;;;5027736;28;20869;-70
2021/12/16 06:29:36;;;;;;;11.93;5.23;;;;;;;;;;5028917;28;20415;-68
2021/12/16 06:32:02;;;;;;;11.03;6.10;;;;;;;;;;5019276;28;20438;-68
2021/12/16 06:34:28;;;;;;;15.83;6.23;;;;;;;;;;5024194;28;20464;-68
2021/12/16 06:36:54;;;;;;;11.83;5.77;;;;;;;;;;5007443;28;20931;-68
2021/12/16 06:39:19;;;;;;;20.37;6.23;;;;;;;;;;5015267;28;20970;-69
2021/12/16 06:41:45;;;;;;;16.50;6.47;;;;;;;;;;5012564;28;20182;-69
2021/12/16 06:47:08;;;;;;;17.63;6.63;;;;;;;;;;5021747;28;20189;-68
2021/12/16 06:49:35;;;;;;;12.47;6.33;;;;;;;;;;5028169;28;20986;-68
2021/12/16 06:52:04;;;;;;;12.90;5.67;;;;;;;;;;5022621;28;20519;-68
2021/12/16 06:54:51;;;;;;;12.60;6.17;;;;;;;;;;5030509;28;20438;-68
2021/12/16 06:59:53;;;;;;;15.73;7.40;;;;;;;;;;5014665;28;20442;-69
2021/12/16 07:05:03;;;;;;;12.97;6.50;;;;;;;;;;5023170;28;20469;-68
2021/12/16 07:07:28;;;;;;;10.87;6.23;;;;;;;;;;5022774;28;20445;-68
2021/12/16 07:09:54;;;;;;;15.47;7.10;;;;;;;;;;5020427;28;20964;-69
2021/12/16 07:12:27;;;;;;;17.83;6.73;;;;;;;;;;5035320;28;20240;-69
2021/12/16 07:14:52;;;;;;;14.80;7.50;;;;;;;;;;5028345;28;20453;-69
2021/12/16 07:17:18;;;;;;;11.50;6.03;;;;;;;;;;5016016;28;21842;-69
2021/12/16 07:19:44;;;;;;;16.43;6.80;;;;;;;;;;5018264;28;20184;-69
2021/12/16 07:22:10;;;;;;;17.47;6.03;;;;;;;;;;5018288;28;20191;-69
2021/12/16 07:24:36;;;;;;;14.87;6.70;;;;;;;;;;5022431;28;20462;-69
2021/12/16 07:27:01;;;;;;;20.37;7.97;;;;;;;;;;5019196;28;20438;-69
2021/12/16 07:29:27;;;;;;;14.63;7.00;;;;;;;;;;5023235;28;21145;-69
2021/12/16 07:31:53;;;;;;;14.60;6.67;;;;;;;;;;5016961;28;20183;-71
2021/12/16 07:34:19;;;;;;;16.63;7.30;;;;;;;;;;5021317;28;20974;-67
2021/12/16 07:36:45;;;;;;;17.70;6.80;;;;;;;;;;5021446;28;20214;-67
2021/12/16 07:39:12;;;;;;;12.70;6.50;;;;;;;;;;5019879;28;20196;-67
2021/12/16 07:41:40;;;;;;;20.77;7.67;;;;;;;;;;5025015;28;20465;-67
2021/12/16 07:44:09;;;;;;;19.07;7.70;;;;;;;;;;5030310;28;20522;-67
2021/12/16 07:46:40;;;;;;;18.77;7.13;;;;;;;;;;5020386;28;20431;-67
2021/12/16 07:49:08;;;;;;;22.17;6.77;;;;;;;;;;5027142;28;20489;-67
2021/12/16 07:51:33;;;;;;;15.80;7.43;;;;;;;;;;5023979;28;20453;-68
2021/12/16 07:53:59;;;;;;;24.57;7.93;;;;;;;;;;5028433;28;20459;-68
2021/12/16 07:56:24;;;;;;;19.87;7.90;;;;;;;;;;5028909;28;20184;-68
2021/12/16 07:58:50;;;;;;;21.00;8.40;;;;;;;;;;5026398;28;20204;-67
2021/12/16 08:01:16;;;;;;;24.37;7.57;;;;;;;;;;5023050;28;20191;-67
2021/12/16 08:03:42;;;;;;;26.53;7.77;;;;;;;;;;5025578;28;20952;-68
2021/12/16 08:06:10;;;;;;;23.70;7.70;;;;;;;;;;5023124;28;20184;-68
2021/12/16 08:08:35;;;;;;;26.03;7.50;;;;;;;;;;5019896;28;20508;-68
2021/12/16 08:11:02;;;;;;;33.20;8.90;;;;;;;;;;5026989;28;20446;-68
2021/12/16 08:13:27;;;;;;;29.10;9.07;;;;;;;;;;5034064;28;20218;-68
2021/12/16 08:15:53;;;;;;;27.80;8.50;;;;;;;;;;5020430;28;20434;-68
2021/12/16 08:18:18;;;;;;;24.20;8.80;;;;;;;;;;5034001;28;20691;-68
2021/12/16 08:20:43;;;;;;;31.73;9.70;;;;;;;;;;5026421;28;20184;-68
2021/12/16 08:23:09;;;;;;;23.63;7.80;;;;;;;;;;5025118;28;20184;-69
2021/12/16 08:25:35;;;;;;;29.90;8.37;;;;;;;;;;5025536;28;20200;-69
2021/12/16 08:28:03;;;;;;;27.60;8.80;;;;;;;;;;5027863;28;20194;-69
2021/12/16 08:30:29;;;;;;;30.77;8.23;;;;;;;;;;5028052;28;20235;-69
2021/12/16 08:32:55;;;;;;;24.03;8.10;;;;;;;;;;5032545;28;21073;-69
2021/12/16 08:35:21;;;;;;;37.90;8.70;;;;;;;;;;5024274;28;20457;-69
2021/12/16 08:37:46;;;;;;;28.40;8.83;;;;;;;;;;5021325;28;20640;-69
2021/12/16 08:40:32;;;;;;;21.00;7.60;;;;;;;;;;5022784;28;20190;-69
2021/12/16 08:42:57;;;;;;;31.63;9.50;;;;;;;;;;5032151;28;20262;-69
2021/12/16 08:45:25;;;;;;;24.97;9.00;;;;;;;;;;5032628;28;20569;-69
2021/12/16 08:47:50;;;;;;;25.67;9.70;;;;;;;;;;5032900;28;20796;-69
2021/12/16 08:50:36;;;;;;;25.37;10.33;;;;;;;;;;5028483;28;20435;-69
2021/12/16 08:53:02;;;;;;;39.60;10.50;;;;;;;;;;5027627;28;20207;-68
2021/12/16 08:55:32;;;;;;;32.40;8.77;;;;;;;;;;5028423;28;20572;-68
2021/12/16 08:57:57;;;;;;;36.60;10.40;;;;;;;;;;5024802;28;20564;-68
2021/12/16 09:00:25;;;;;;;28.27;10.20;;;;;;;;;;5029859;28;20470;-68
2021/12/16 09:02:51;;;;;;;33.07;9.50;;;;;;;;;;5027997;28;20223;-69
2021/12/16 09:05:20;;;;;;;30.87;10.20;;;;;;;;;;5030328;28;20509;-70
2021/12/16 09:07:48;;;;;;;26.97;9.97;;;;;;;;;;5027074;28;20185;-68
2021/12/16 09:10:14;;;;;;;29.40;10.00;;;;;;;;;;5028670;28;20507;-69
2021/12/16 09:12:53;;;;;;;24.60;9.60;;;;;;;;;;5030181;28;20450;-69
2021/12/16 09:15:19;;;;;;;25.87;11.07;;;;;;;;;;5028270;28;20986;-68
2021/12/16 09:17:44;;;;;;;35.20;10.50;;;;;;;;;;5015890;28;20462;-69
2021/12/16 09:20:10;;;;;;;31.97;9.90;;;;;;;;;;5030489;28;20423;-69
2021/12/16 09:22:36;;;;;;;25.23;10.10;;;;;;;;;;5023679;28;20191;-69
2021/12/16 09:25:02;;;;;;;20.03;9.17;;;;;;;;;;5019976;28;20200;-69
2021/12/16 09:27:30;;;;;;;29.67;11.90;;;;;;;;;;5023475;28;20188;-69
2021/12/16 09:29:56;;;;;;;25.63;10.67;;;;;;;;;;5022740;28;20191;-69
2021/12/16 09:32:24;;;;;;;23.13;10.70;;;;;;;;;;5026427;28;20430;-69
2021/12/16 09:34:50;;;;;;;21.90;10.70;;;;;;;;;;5023570;28;20208;-69
2021/12/16 09:37:15;;;;;;;30.07;10.47;;;;;;;;;;5026745;28;20795;-69
2021/12/16 09:39:41;;;;;;;22.87;10.23;;;;;;;;;;5030650;28;20178;-69
2021/12/16 09:42:07;;;;;;;25.90;10.40;;;;;;;;;;5021990;28;20586;-68
2021/12/16 09:44:33;;;;;;;24.73;9.90;;;;;;;;;;5029363;28;20198;-69
2021/12/16 09:47:01;;;;;;;21.30;10.17;;;;;;;;;;5023602;28;20434;-68
2021/12/16 09:49:27;;;;;;;22.77;11.50;;;;;;;;;;5025695;28;20276;-68
2021/12/16 09:51:53;;;;;;;20.73;9.97;;;;;;;;;;5023881;28;21015;-67
2021/12/16 09:54:21;;;;;;;24.37;9.90;;;;;;;;;;5030040;28;20211;-67
2021/12/16 09:56:48;;;;;;;25.43;8.87;;;;;;;;;;5026881;28;20938;-67
2021/12/16 09:59:14;;;;;;;20.33;8.93;;;;;;;;;;5024184;28;20570;-67
2021/12/16 10:01:40;;;;;;;24.10;10.73;;;;;;;;;;5023885;28;20544;-67
2021/12/16 10:04:10;;;;;;;14.87;9.80;;;;;;;;;;5027652;28;20466;-67
2021/12/16 10:06:37;;;;;;;18.77;9.53;;;;;;;;;;5026011;28;20569;-68
2021/12/16 10:09:05;;;;;;;20.20;9.90;;;;;;;;;;5026245;28;20953;-68
2021/12/16 10:11:31;;;;;;;20.00;10.40;;;;;;;;;;5031948;28;20708;-68
2021/12/16 10:19:10;;;;;;;19.20;10.10;;;;;;;;;;5019750;28;20465;-68
2021/12/16 10:21:36;;;;;;;22.20;9.90;;;;;;;;;;5028953;28;20453;-68
2021/12/16 10:24:02;;;;;;;18.67;8.90;;;;;;;;;;5020131;28;20458;-68
2021/12/16 10:26:27;;;;;;;21.10;9.93;;;;;;;;;;5027439;28;20954;-68
2021/12/16 10:28:56;;;;;;;22.40;10.47;;;;;;;;;;5022338;28;20191;-68
2021/12/16 10:31:21;;;;;;;20.80;9.80;;;;;;;;;;5025885;28;20184;-70
2021/12/16 10:33:48;;;;;;;20.50;10.20;;;;;;;;;;5025951;28;21814;-71
2021/12/16 10:36:34;;;;;;;19.33;10.43;;;;;;;;;;5033135;28;20633;-69
2021/12/16 10:39:02;;;;;;;14.40;9.40;;;;;;;;;;5025314;28;20513;-69
2021/12/16 10:41:29;;;;;;;18.30;9.97;;;;;;;;;;5021618;28;20462;-69
2021/12/16 10:44:14;;;;;;;19.70;10.67;;;;;;;;;;5029842;28;21016;-69
2021/12/16 10:46:44;;;;;;;25.07;11.33;;;;;;;;;;5032466;28;20431;-67
2021/12/16 10:49:11;;;;;;;19.20;10.63;;;;;;;;;;5023541;28;20462;-68
2021/12/16 10:51:41;;;;;;;18.87;10.40;;;;;;;;;;5031350;28;20529;-68
2021/12/16 10:54:08;;;;;;;18.30;9.50;;;;;;;;;;5032524;28;20559;-68
2021/12/16 10:56:39;;;;;;;18.27;10.53;;;;;;;;;;5020280;28;20445;-68
2021/12/16 10:59:10;;;;;;;16.80;9.47;;;;;;;;;;5027484;28;20458;-68
2021/12/16 11:01:43;;;;;;;15.47;9.23;;;;;;;;;;5018115;28;20975;-68
2021/12/16 11:04:14;;;;;;;17.33;10.23;;;;;;;;;;5025927;28;20465;-68
2021/12/16 11:06:43;;;;;;;14.23;10.00;;;;;;;;;;5023201;28;20953;-69
2021/12/16 11:09:27;;;;;;;14.80;10.20;;;;;;;;;;5023189;28;20534;-68
2021/12/16 11:12:11;;;;;;;15.10;9.90;;;;;;;;;;5025967;28;20790;-68
2021/12/16 11:14:38;;;;;;;14.83;9.53;;;;;;;;;;5024094;28;20466;-69
2021/12/16 11:17:07;;;;;;;17.60;10.27;;;;;;;;;;5019722;28;20441;-68
2021/12/16 11:19:38;;;;;;;16.30;10.17;;;;;;;;;;5024245;28;20539;-68
2021/12/16 11:22:05;;;;;;;15.80;10.13;;;;;;;;;;5027492;28;20499;-68
2021/12/16 11:24:30;;;;;;;16.10;9.20;;;;;;;;;;5031256;28;20450;-68
2021/12/16 11:26:56;;;;;;;17.13;10.27;;;;;;;;;;5021158;28;20426;-68
2021/12/16 11:29:28;;;;;;;17.70;9.93;;;;;;;;;;5025218;28;20607;-69
2021/12/16 11:31:55;;;;;;;15.20;9.73;;;;;;;;;;5027217;28;20219;-68
2021/12/16 11:34:21;;;;;;;16.47;10.27;;;;;;;;;;5029374;28;20497;-68
2021/12/16 11:36:47;;;;;;;16.47;9.80;;;;;;;;;;5022601;28;22388;-67
2021/12/16 11:39:21;;;;;;;14.87;9.87;;;;;;;;;;5028626;28;20215;-68
2021/12/16 11:42:01;;;;;;;17.20;10.27;;;;;;;;;;5027290;28;20504;-68
2021/12/16 11:44:29;;;;;;;14.87;10.30;;;;;;;;;;5028825;28;21351;-68
2021/12/16 11:47:06;;;;;;;16.17;10.23;;;;;;;;;;5030348;28;20537;-68
2021/12/16 11:49:34;;;;;;;20.83;11.37;;;;;;;;;;5030025;28;20519;-67
2021/12/16 11:52:07;;;;;;;19.93;11.90;;;;;;;;;;5024703;28;20437;-68
2021/12/16 11:54:35;;;;;;;16.03;9.60;;;;;;;;;;5027151;28;20947;-68
2021/12/16 11:57:01;;;;;;;17.83;11.30;;;;;;;;;;5031549;28;20439;-68
2021/12/16 11:59:32;;;;;;;17.60;12.23;;;;;;;;;;5029876;28;20468;-68
2021/12/16 12:01:58;;;;;;;14.10;9.43;;;;;;;;;;5028938;28;21050;-68
2021/12/16 12:04:25;;;;;;;16.07;10.43;;;;;;;;;;5032762;28;21004;-68
2021/12/16 12:06:50;;;;;;;16.23;10.63;;;;;;;;;;5029496;28;20426;-68
2021/12/16 12:09:15;;;;;;;13.17;9.20;;;;;;;;;;5030618;28;21308;-68
2021/12/16 12:11:43;;;;;;;12.33;8.80;;;;;;;;;;5019106;28;21124;-68
2021/12/16 12:14:20;;;;;;;13.03;8.53;;;;;;;;;;5029296;28;20591;-69
2021/12/16 12:16:46;;;;;;;17.90;10.03;;;;;;;;;;5024553;28;20429;-68
2021/12/16 12:19:14;;;;;;;17.53;11.10;;;;;;;;;;5024357;28;20465;-68
2021/12/16 12:21:53;;;;;;;17.83;11.57;;;;;;;;;;5027254;28;20447;-68
2021/12/16 12:24:26;;;;;;;17.60;11.40;;;;;;;;;;5028321;28;20450;-68
2021/12/16 12:26:54;;;;;;;16.33;10.80;;;;;;;;;;5018961;28;20580;-69
2021/12/16 12:29:19;;;;;;;18.17;10.60;;;;;;;;;;5025075;28;20442;-68
2021/12/16 12:31:47;;;;;;;19.67;11.73;;;;;;;;;;5020809;28;20434;-69
2021/12/16 12:34:13;;;;;;;17.03;10.67;;;;;;;;;;5022825;28;20204;-68
2021/12/16 12:36:39;;;;;;;18.07;11.60;;;;;;;;;;5026496;28;20503;-68
2021/12/16 12:39:10;;;;;;;18.97;12.50;;;;;;;;;;5025143;28;20821;-68
2021/12/16 12:41:35;;;;;;;18.43;12.40;;;;;;;;;;5025499;28;20430;-68
2021/12/16 12:44:04;;;;;;;18.17;11.73;;;;;;;;;;5031835;28;21025;-68
2021/12/16 12:46:33;;;;;;;19.27;12.23;;;;;;;;;;5029730;28;20766;-68
2021/12/16 12:49:00;;;;;;;17.00;11.60;;;;;;;;;;5019729;28;20449;-68
2021/12/16 12:51:51;;;;;;;15.53;11.00;;;;;;;;;;5022866;28;20810;-68
2021/12/16 12:54:28;;;;;;;16.30;11.30;;;;;;;;;;5024434;28;21504;-68
2021/12/16 12:56:56;;;;;;;18.20;11.80;;;;;;;;;;5028590;28;21283;-68
2021/12/16 12:59:31;;;;;;;17.73;10.93;;;;;;;;;;5026938;28;20466;-68
2021/12/16 13:01:56;;;;;;;20.40;12.87;;;;;;;;;;5018217;28;20433;-68
2021/12/16 13:04:43;;;;;;;19.77;12.17;;;;;;;;;;5027252;28;20462;-69
2021/12/16 13:07:09;;;;;;;22.37;12.97;;;;;;;;;;5019750;28;20183;-68
2021/12/16 13:09:41;;;;;;;19.93;12.70;;;;;;;;;;5024536;28;20505;-67
2021/12/16 13:12:41;;;;;;;22.00;13.37;;;;;;;;;;5022337;28;20442;-69
2021/12/16 13:15:23;;;;;;;19.50;12.33;;;;;;;;;;5027001;28;20465;-68
2021/12/16 13:23:33;;;;;;;26.13;16.20;;;;;;;;;;5016586;28;20577;-68
2021/12/16 13:31:50;;;;;;;29.33;16.77;;;;;;;;;;5025485;28;20525;-68
2021/12/16 13:34:29;;;;;;;31.03;18.17;;;;;;;;;;4988296;28;20467;-69
2021/12/16 13:36:57;;;;;;;31.23;18.00;;;;;;;;;;4981666;28;20443;-70
2021/12/16 13:39:24;;;;;;;32.97;20.20;;;;;;;;;;5008658;28;20852;-68
2021/12/16 13:41:52;;;;;;;36.53;18.47;;;;;;;;;;5027240;28;20450;-68
2021/12/16 13:44:18;;;;;;;33.50;19.23;;;;;;;;;;5024190;28;20542;-68
2021/12/16 13:47:12;;;;;;;32.93;18.37;;;;;;;;;;5016342;28;20545;-68
2021/12/16 13:59:03;;;;;;;29.40;18.00;;;;;;;;;;5031856;28;20527;-69
2021/12/16 14:01:30;;;;;;;31.50;19.50;;;;;;;;;;5025154;28;20433;-69
2021/12/16 14:06:37;;;;;;;35.33;19.27;;;;;;;;;;5017120;28;20529;-68
2021/12/16 14:09:17;;;;;;;27.67;17.20;;;;;;;;;;5019274;28;20518;-68
2021/12/16 14:14:42;;;;;;;28.53;18.00;;;;;;;;;;5026457;28;20453;-69
2021/12/16 14:17:42;;;;;;;28.93;17.60;;;;;;;;;;5031270;28;20455;-69
2021/12/16 14:23:09;;;;;;;37.47;20.40;;;;;;;;;;5026016;28;20434;-68
2021/12/16 14:31:19;;;;;;;46.50;23.50;;;;;;;;;;5029139;28;20437;-68
2021/12/16 14:40:00;;;;;;;55.70;29.23;;;;;;;;;;5008019;28;20567;-67
2021/12/16 14:42:38;;;;;;;55.90;28.03;;;;;;;;;;5004268;28;20439;-68
2021/12/16 14:45:24;;;;;;;50.47;28.10;;;;;;;;;;5023205;28;20496;-68
2021/12/16 14:47:58;;;;;;;46.67;26.30;;;;;;;;;;5031950;28;20822;-68
2021/12/16 14:50:26;;;;;;;46.20;25.73;;;;;;;;;;5023264;28;20853;-68
2021/12/16 14:52:52;;;;;;;55.17;27.90;;;;;;;;;;5020973;28;20437;-68
2021/12/16 14:55:18;;;;;;;66.17;30.47;;;;;;;;;;5025598;28;20451;-68
2021/12/16 14:57:54;;;;;;;65.37;31.10;;;;;;;;;;5019766;28;20291;-69
2021/12/16 15:00:36;;;;;;;47.97;27.00;;;;;;;;;;5029841;28;20433;-68
2021/12/16 15:03:04;;;;;;;38.17;22.50;;;;;;;;;;5028348;28;21733;-68
2021/12/16 15:05:31;;;;;;;33.53;20.80;;;;;;;;;;5020607;28;20561;-68
2021/12/16 15:08:18;;;;;;;29.90;19.57;;;;;;;;;;5029041;28;20438;-67
2021/12/16 15:10:44;;;;;;;23.27;17.90;;;;;;;;;;5028324;28;20529;-68
2021/12/16 15:13:18;;;;;;;21.97;16.27;;;;;;;;;;5031162;28;20874;-68
2021/12/16 15:16:04;;;;;;;20.70;14.97;;;;;;;;;;5029962;28;20438;-70
2021/12/16 15:40:32;;;;;;;23.97;15.70;;;;;;;;;;5026968;28;20422;-68
2021/12/16 15:43:00;;;;;;;19.20;14.27;;;;;;;;;;5025131;28;20523;-68
2021/12/16 15:45:27;;;;;;;19.93;15.40;;;;;;;;;;5022718;28;20482;-68
2021/12/16 15:47:53;;;;;;;19.67;14.90;;;;;;;;;;5022898;28;20492;-68
2021/12/16 15:50:29;;;;;;;21.90;15.47;;;;;;;;;;5025196;28;21192;-70
2021/12/16 15:52:55;;;;;;;18.50;14.47;;;;;;;;;;5026377;28;20184;-69
2021/12/16 15:55:24;;;;;;;22.10;15.23;;;;;;;;;;5027265;28;20459;-70
2021/12/16 15:57:49;;;;;;;19.60;13.60;;;;;;;;;;5024202;28;20465;-68
2021/12/16 16:00:17;;;;;;;17.80;13.50;;;;;;;;;;5027120;28;20941;-67
2021/12/16 16:02:42;;;;;;;17.97;14.87;;;;;;;;;;5023467;28;20194;-67
2021/12/16 16:05:08;;;;;;;17.73;13.83;;;;;;;;;;5025774;28;20466;-67
2021/12/16 16:07:35;;;;;;;18.97;13.97;;;;;;;;;;5021491;28;20212;-67
2021/12/16 16:10:01;;;;;;;16.33;14.07;;;;;;;;;;5024609;28;20445;-68
2021/12/16 16:12:30;;;;;;;20.20;14.80;;;;;;;;;;5024850;28;20437;-68
2021/12/16 16:15:00;;;;;;;15.30;13.27;;;;;;;;;;5024411;28;20631;-68
2021/12/16 16:17:25;;;;;;;16.70;12.43;;;;;;;;;;5027711;28;20427;-67
2021/12/16 16:19:52;;;;;;;16.67;13.03;;;;;;;;;;5026201;28;20446;-67
2021/12/16 16:22:17;;;;;;;15.13;13.20;;;;;;;;;;5026324;28;20175;-67
2021/12/16 16:24:45;;;;;;;13.20;11.30;;;;;;;;;;5026112;28;20458;-67
2021/12/16 16:27:21;;;;;;;15.30;12.30;;;;;;;;;;5027937;28;20529;-67
2021/12/16 16:29:48;;;;;;;16.07;12.63;;;;;;;;;;5030961;28;20433;-68
2021/12/16 16:32:14;;;;;;;18.00;12.87;;;;;;;;;;5028019;28;20430;-68
2021/12/16 16:34:44;;;;;;;17.20;14.17;;;;;;;;;;5026980;28;20956;-68
2021/12/16 16:37:10;;;;;;;16.20;12.90;;;;;;;;;;5033671;28;20295;-68
2021/12/16 16:39:39;;;;;;;17.03;13.80;;;;;;;;;;5032320;28;20465;-68
2021/12/16 16:42:11;;;;;;;14.60;12.47;;;;;;;;;;5029867;28;20434;-68
2021/12/16 16:44:37;;;;;;;18.07;12.70;;;;;;;;;;5033975;28;20503;-68
2021/12/16 16:47:12;;;;;;;15.80;12.23;;;;;;;;;;5032279;28;20434;-68
2021/12/16 16:49:49;;;;;;;15.00;13.07;;;;;;;;;;5030952;28;20188;-68
2021/12/16 16:52:14;;;;;;;16.53;11.63;;;;;;;;;;5032494;28;20425;-68
2021/12/16 16:54:49;;;;;;;15.20;12.33;;;;;;;;;;5034042;28;20455;-68
2021/12/16 16:57:22;;;;;;;15.00;12.90;;;;;;;;;;5036380;28;20204;-68
2021/12/16 16:59:49;;;;;;;15.67;12.40;;;;;;;;;;5030197;28;20466;-69
2021/12/16 17:02:14;;;;;;;15.30;12.87;;;;;;;;;;5028018;28;20431;-69
2021/12/16 17:04:40;;;;;;;14.03;11.83;;;;;;;;;;5029220;28;20418;-69
2021/12/16 17:07:06;;;;;;;13.87;12.47;;;;;;;;;;5033292;28;20188;-68
2021/12/16 17:09:34;;;;;;;14.50;12.37;;;;;;;;;;5032345;28;20858;-68
2021/12/16 17:12:03;;;;;;;13.27;11.87;;;;;;;;;;5033323;28;20203;-68
2021/12/16 17:14:37;;;;;;;16.90;11.90;;;;;;;;;;5032216;28;20978;-68
2021/12/16 17:17:22;;;;;;;14.13;12.00;;;;;;;;;;5029190;28;20428;-68
2021/12/16 17:20:11;;;;;;;14.20;11.83;;;;;;;;;;5024184;28;20497;-69
2021/12/16 17:22:42;;;;;;;13.30;10.87;;;;;;;;;;5021614;28;20417;-69
2021/12/16 17:25:09;;;;;;;13.30;10.80;;;;;;;;;;5025036;28;20458;-68
2021/12/16 17:27:39;;;;;;;13.73;12.30;;;;;;;;;;5028476;28;20468;-68
2021/12/16 17:30:09;;;;;;;12.90;11.60;;;;;;;;;;5024488;28;20435;-70
2021/12/16 17:32:38;;;;;;;14.10;10.70;;;;;;;;;;5026866;28;20551;-72
2021/12/16 17:35:09;;;;;;;12.50;11.00;;;;;;;;;;5028797;28;20466;-71
2021/12/16 17:37:36;;;;;;;12.97;10.63;;;;;;;;;;5024483;28;20923;-68
2021/12/16 17:40:12;;;;;;;14.80;11.90;;;;;;;;;;5023724;28;20549;-69
2021/12/16 17:42:39;;;;;;;18.67;12.97;;;;;;;;;;5027273;28;20437;-68
2021/12/16 17:45:07;;;;;;;13.37;11.27;;;;;;;;;;5020108;28;20459;-68
2021/12/16 17:47:33;;;;;;;14.87;11.47;;;;;;;;;;5021366;28;20446;-68
2021/12/16 17:49:59;;;;;;;17.73;11.83;;;;;;;;;;5025210;28;20442;-69
2021/12/16 17:52:26;;;;;;;13.70;11.90;;;;;;;;;;5029119;28;20431;-68
2021/12/16 17:55:00;;;;;;;14.30;12.27;;;;;;;;;;5033966;28;20204;-70
2021/12/16 17:57:35;;;;;;;15.30;12.30;;;;;;;;;;5028815;28;20433;-70
2021/12/16 18:00:04;;;;;;;18.53;12.87;;;;;;;;;;5028257;28;20427;-69
2021/12/16 18:02:32;;;;;;;14.50;12.40;;;;;;;;;;5028655;28;20441;-71